createdAt,value
2018-11-26T00:01:33.558Z,61.13
2018-11-26T00:04:21.873Z,59.67
2018-11-26T00:07:10.255Z,61.37
2018-11-26T00:10:17.925Z,57.13
2018-11-26T00:13:06.248Z,55.23
2018-11-26T00:15:35.146Z,58.00
2018-11-26T00:18:04.003Z,60.43
2018-11-26T00:23:26.568Z,52.93
2018-11-26T00:25:55.498Z,55.93
2018-11-26T00:28:43.797Z,53.13
2018-11-26T00:31:12.809Z,53.30
2018-11-26T00:33:41.761Z,53.57
2018-11-26T00:36:30.073Z,59.50
2018-11-26T00:38:58.947Z,62.43
2018-11-26T00:41:27.897Z,55.07
2018-11-26T00:43:56.829Z,60.20
2018-11-26T00:46:38.521Z,59.63
2018-11-26T00:49:07.383Z,57.50
2018-11-26T00:51:36.287Z,62.40
2018-11-26T00:54:05.458Z,57.10
2018-11-26T00:56:34.348Z,58.03
2018-11-26T00:59:03.226Z,59.37
2018-11-26T01:01:32.191Z,62.00
2018-11-26T01:04:20.513Z,58.07
2018-11-26T01:06:49.635Z,60.10
2018-11-26T01:09:18.539Z,58.30
2018-11-26T01:11:47.506Z,56.27
2018-11-26T01:14:16.403Z,60.17
2018-11-26T01:16:45.317Z,60.03
2018-11-26T01:19:14.187Z,56.87
2018-11-26T01:22:02.505Z,55.80
2018-11-26T01:24:50.807Z,60.87
2018-11-26T01:27:20.064Z,59.43
2018-11-26T01:29:48.989Z,57.20
2018-11-26T01:32:18.071Z,54.97
2018-11-26T01:34:46.950Z,58.80
2018-11-26T01:37:15.863Z,53.07
2018-11-26T01:40:04.629Z,54.07
2018-11-26T01:42:33.534Z,56.10
2018-11-26T01:45:02.442Z,56.73
2018-11-26T01:47:31.341Z,52.83
2018-11-26T01:50:00.257Z,53.03
2018-11-26T01:52:29.159Z,53.50
2018-11-26T01:54:58.049Z,50.90
2018-11-26T01:57:46.325Z,54.03
2018-11-26T02:00:34.640Z,51.90
2018-11-26T02:03:03.577Z,51.03
2018-11-26T02:05:32.490Z,48.80
2018-11-26T02:08:01.374Z,52.67
2018-11-26T02:10:49.673Z,47.43
2018-11-26T02:13:18.574Z,52.73
2018-11-26T02:15:47.468Z,48.77
2018-11-26T02:18:16.371Z,49.70
2018-11-26T02:20:45.252Z,44.10
2018-11-26T02:23:14.410Z,50.27
2018-11-26T02:25:43.293Z,49.37
2018-11-26T02:28:12.196Z,52.13
2018-11-26T02:30:41.168Z,49.20
2018-11-26T02:33:10.202Z,48.17
2018-11-26T02:35:39.090Z,49.20
2018-11-26T02:38:08.025Z,45.73
2018-11-26T02:40:56.334Z,44.43
2018-11-26T02:43:44.617Z,48.57
2018-11-26T02:46:32.933Z,44.40
2018-11-26T02:49:01.805Z,46.83
2018-11-26T02:51:30.744Z,42.50
2018-11-26T02:54:19.040Z,47.33
2018-11-26T02:56:48.049Z,43.40
2018-11-26T02:59:36.333Z,44.47
2018-11-26T03:02:05.510Z,41.70
2018-11-26T03:04:53.789Z,45.00
2018-11-26T03:07:22.694Z,44.80
2018-11-26T03:10:11.042Z,40.70
2018-11-26T03:12:59.416Z,45.10
2018-11-26T03:15:47.728Z,47.40
2018-11-26T03:21:29.871Z,44.17
2018-11-26T03:24:18.200Z,41.87
2018-11-26T03:27:06.525Z,45.00
2018-11-26T03:33:26.551Z,43.20
2018-11-26T03:35:55.434Z,38.50
2018-11-26T03:38:35.265Z,43.37
2018-11-26T03:41:04.177Z,42.70
2018-11-26T03:43:33.078Z,40.57
2018-11-26T03:46:13.871Z,43.20
2018-11-26T03:48:42.761Z,41.00
2018-11-26T03:51:31.087Z,44.83
2018-11-26T03:54:19.395Z,44.27
2018-11-26T03:57:07.751Z,41.93
2018-11-26T03:59:36.608Z,43.63
2018-11-26T04:02:05.617Z,41.57
2018-11-26T04:04:34.564Z,36.17
2018-11-26T04:07:03.514Z,41.47
2018-11-26T04:09:32.383Z,42.27
2018-11-26T04:12:01.363Z,40.70
2018-11-26T04:14:49.716Z,39.80
2018-11-26T04:17:38.048Z,39.30
2018-11-26T04:20:26.350Z,41.43
2018-11-26T04:22:55.229Z,41.90
2018-11-26T04:25:24.115Z,40.30
2018-11-26T04:27:53.091Z,38.67
2018-11-26T04:30:22.073Z,37.63
2018-11-26T04:33:10.413Z,39.50
2018-11-26T04:35:58.706Z,38.00
2018-11-26T04:38:47.056Z,39.67
2018-11-26T04:41:15.967Z,39.83
2018-11-26T04:44:04.361Z,42.93
2018-11-26T04:47:11.752Z,40.07
2018-11-26T04:49:40.715Z,40.17
2018-11-26T04:52:29.071Z,39.50
2018-11-26T04:54:57.965Z,39.13
2018-11-26T04:57:46.241Z,43.50
2018-11-26T05:00:34.544Z,39.20
2018-11-26T05:03:22.870Z,40.17
2018-11-26T05:05:51.956Z,46.13
2018-11-26T05:08:40.297Z,42.83
2018-11-26T05:11:28.588Z,41.47
2018-11-26T05:14:16.958Z,43.30
2018-11-26T05:17:05.322Z,40.73
2018-11-26T05:19:34.583Z,39.80
2018-11-26T05:22:03.451Z,43.27
2018-11-26T05:24:51.784Z,38.83
2018-11-26T05:27:20.659Z,41.40
2018-11-26T05:29:49.602Z,40.93
2018-11-26T05:32:18.463Z,39.43
2018-11-26T05:34:47.469Z,38.63
2018-11-26T05:37:16.375Z,44.63
2018-11-26T05:39:45.318Z,40.30
2018-11-26T05:42:33.621Z,45.13
2018-11-26T05:45:21.928Z,42.20
2018-11-26T05:47:50.873Z,38.93
2018-11-26T05:50:39.251Z,38.60
2018-11-26T05:53:27.582Z,42.13
2018-11-26T05:56:15.882Z,41.23
2018-11-26T05:59:04.272Z,39.27
2018-11-26T06:01:33.064Z,40.03
2018-11-26T06:04:01.971Z,40.27
2018-11-26T06:06:30.851Z,40.50
2018-11-26T06:12:33.659Z,41.27
2018-11-26T06:15:22.024Z,38.53
2018-11-26T06:17:50.924Z,39.73
2018-11-26T06:20:19.830Z,41.13
2018-11-26T06:23:08.130Z,41.00
2018-11-26T06:25:37.103Z,37.10
2018-11-26T06:28:25.433Z,37.40
2018-11-26T06:34:27.189Z,40.47
2018-11-26T06:37:15.505Z,37.77
2018-11-26T06:40:03.852Z,42.23
2018-11-26T06:42:52.166Z,34.97
2018-11-26T06:45:40.465Z,40.47
2018-11-26T06:48:21.701Z,39.20
2018-11-26T06:51:03.188Z,42.17
2018-11-26T06:53:44.499Z,36.40
2018-11-26T06:56:13.473Z,42.63
2018-11-26T06:58:42.366Z,39.97
2018-11-26T07:01:11.564Z,41.97
2018-11-26T07:03:40.471Z,40.63
2018-11-26T07:06:09.490Z,39.77
2018-11-26T07:08:58.300Z,38.70
2018-11-26T07:11:46.639Z,40.93
2018-11-26T07:14:34.979Z,40.47
2018-11-26T07:17:23.362Z,47.77
2018-11-26T07:20:15.138Z,39.00
2018-11-26T07:25:52.751Z,42.20
2018-11-26T07:28:41.066Z,39.97
2018-11-26T07:31:29.386Z,40.47
2018-11-26T07:33:58.267Z,40.07
2018-11-26T07:36:46.645Z,39.00
2018-11-26T07:39:34.952Z,36.03
2018-11-26T07:42:23.274Z,37.50
2018-11-26T07:45:12.130Z,38.37
2018-11-26T07:48:00.427Z,40.40
2018-11-26T07:50:29.383Z,36.10
2018-11-26T07:53:17.708Z,40.27
2018-11-26T07:55:46.941Z,38.73
2018-11-26T07:58:35.235Z,37.33
2018-11-26T08:01:23.544Z,40.60
2018-11-26T08:07:26.548Z,40.77
2018-11-26T08:10:15.481Z,38.90
2018-11-26T08:13:03.813Z,39.13
2018-11-26T08:15:52.173Z,38.43
2018-11-26T08:18:40.486Z,42.50
2018-11-26T08:21:28.818Z,45.73
2018-11-26T08:24:17.138Z,45.27
2018-11-26T08:26:46.084Z,43.20
2018-11-26T08:29:15.006Z,44.80
2018-11-26T08:32:03.325Z,50.37
2018-11-26T08:34:32.199Z,46.20
2018-11-26T08:37:20.194Z,48.13
2018-11-26T08:40:08.167Z,48.63
2018-11-26T08:43:15.753Z,43.90
2018-11-26T08:46:23.134Z,49.13
2018-11-26T08:49:11.828Z,48.93
2018-11-26T08:52:00.133Z,49.17
2018-11-26T08:54:48.463Z,49.60
2018-11-26T08:57:36.904Z,46.40
2018-11-26T09:00:25.253Z,46.63
2018-11-26T09:03:32.636Z,48.40
2018-11-26T09:06:21.216Z,46.13
2018-11-26T09:09:10.053Z,49.03
2018-11-26T09:11:58.387Z,50.70
2018-11-26T09:14:46.703Z,47.20
2018-11-26T09:17:35.027Z,48.67
2018-11-26T09:20:23.309Z,51.70
2018-11-26T09:23:11.621Z,48.07
2018-11-26T09:25:40.530Z,49.93
2018-11-26T09:28:09.450Z,51.07
2018-11-26T09:30:38.395Z,49.27
2018-11-26T09:33:26.690Z,50.90
2018-11-26T09:36:15.142Z,50.73
2018-11-26T09:38:44.049Z,48.13
2018-11-26T09:41:32.373Z,45.97
2018-11-26T09:44:01.608Z,52.43
2018-11-26T09:46:30.526Z,50.67
2018-11-26T09:48:59.402Z,48.87
2018-11-26T09:51:28.348Z,46.70
2018-11-26T09:54:16.686Z,47.37
2018-11-26T09:56:45.586Z,49.63
2018-11-26T09:59:14.481Z,47.00
2018-11-26T10:01:43.388Z,49.10
2018-11-26T10:04:12.369Z,45.90
2018-11-26T10:07:00.784Z,46.17
2018-11-26T10:09:49.080Z,46.93
2018-11-26T10:12:37.458Z,44.97
2018-11-26T10:15:30.127Z,45.03
2018-11-26T10:17:58.987Z,44.73
2018-11-26T10:20:47.308Z,46.57
2018-11-26T10:23:35.604Z,46.37
2018-11-26T10:26:23.938Z,47.50
2018-11-26T10:29:12.231Z,45.80
2018-11-26T10:32:00.607Z,48.43
2018-11-26T10:34:48.876Z,46.53
2018-11-26T10:37:17.816Z,50.90
2018-11-26T10:40:26.421Z,48.40
2018-11-26T10:42:55.325Z,44.53
2018-11-26T10:45:24.903Z,46.70
2018-11-26T10:47:53.854Z,49.20
2018-11-26T10:50:42.160Z,44.63
2018-11-26T10:53:11.111Z,42.80
2018-11-26T10:55:40.009Z,45.57
2018-11-26T10:58:08.879Z,45.93
2018-11-26T11:01:16.275Z,44.17
2018-11-26T11:03:45.161Z,48.00
2018-11-26T11:06:33.496Z,45.80
2018-11-26T11:09:21.811Z,46.53
2018-11-26T11:12:10.145Z,45.57
2018-11-26T11:14:39.127Z,46.03
2018-11-26T11:17:27.445Z,45.20
2018-11-26T11:20:35.103Z,47.97
2018-11-26T11:23:23.440Z,46.63
2018-11-26T11:25:52.387Z,44.63
2018-11-26T11:28:21.326Z,41.33
2018-11-26T11:31:09.664Z,43.60
2018-11-26T11:33:38.726Z,43.53
2018-11-26T11:36:07.646Z,47.17
2018-11-26T11:38:55.973Z,46.67
2018-11-26T11:41:44.324Z,44.60
2018-11-26T11:48:17.265Z,46.17
2018-11-26T11:50:46.195Z,42.67
2018-11-26T11:54:11.457Z,45.73
2018-11-26T11:56:59.884Z,47.70
2018-11-26T11:59:48.204Z,44.00
2018-11-26T12:02:17.156Z,51.60
2018-11-26T12:05:06.055Z,48.67
2018-11-26T12:07:35.011Z,49.43
2018-11-26T12:10:23.356Z,51.20
2018-11-26T12:13:12.236Z,54.40
2018-11-26T12:15:42.795Z,51.67
2018-11-26T12:18:31.094Z,52.87
2018-11-26T12:21:00.141Z,55.23
2018-11-26T12:23:48.439Z,47.47
2018-11-26T12:26:17.387Z,53.27
2018-11-26T12:33:09.335Z,50.40
2018-11-26T12:35:57.652Z,50.03
2018-11-26T12:38:45.946Z,55.03
2018-11-26T12:41:14.861Z,55.63
2018-11-26T12:43:43.821Z,51.90
2018-11-26T12:46:25.131Z,55.73
2018-11-26T12:48:54.157Z,56.07
2018-11-26T12:51:42.492Z,51.87
2018-11-26T12:54:30.843Z,58.27
2018-11-26T12:57:19.176Z,54.67
2018-11-26T13:00:27.101Z,50.50
2018-11-26T13:03:15.395Z,52.33
2018-11-26T13:06:03.746Z,54.23
2018-11-26T13:08:52.072Z,50.67
2018-11-26T13:11:20.963Z,52.83
2018-11-26T13:14:09.560Z,55.83
2018-11-26T13:16:57.629Z,41.80
2018-11-26T13:19:45.943Z,51.20
2018-11-26T13:22:14.887Z,53.40
2018-11-26T13:24:43.780Z,54.80
2018-11-26T13:27:32.119Z,54.80
2018-11-26T13:30:39.809Z,51.97
2018-11-26T13:33:28.180Z,53.27
2018-11-26T13:36:16.533Z,57.27
2018-11-26T13:38:45.355Z,53.63
2018-11-26T13:41:14.274Z,53.43
2018-11-26T13:44:02.599Z,57.77
2018-11-26T13:46:31.599Z,59.83
2018-11-26T13:49:19.937Z,57.33
2018-11-26T13:51:49.060Z,59.03
2018-11-26T13:54:37.386Z,53.93
2018-11-26T13:57:25.657Z,57.33
2018-11-26T13:59:54.647Z,57.53
2018-11-26T14:02:23.598Z,55.27
2018-11-26T14:04:52.548Z,56.87
2018-11-26T14:07:21.515Z,55.63
2018-11-26T14:10:29.237Z,51.80
2018-11-26T14:13:17.571Z,51.33
2018-11-26T14:16:06.370Z,54.97
2018-11-26T14:18:54.676Z,54.43
2018-11-26T14:21:42.961Z,59.00
2018-11-26T14:24:31.351Z,56.03
2018-11-26T14:27:00.177Z,50.63
2018-11-26T14:29:29.219Z,51.73
2018-11-26T14:31:58.139Z,49.30
2018-11-26T14:34:27.305Z,51.87
2018-11-26T14:36:56.208Z,48.63
2018-11-26T14:39:44.527Z,51.03
2018-11-26T14:42:32.836Z,49.47
2018-11-26T14:45:01.909Z,51.83
2018-11-26T14:47:50.397Z,53.00
2018-11-26T14:50:19.133Z,54.07
2018-11-26T14:52:48.979Z,49.10
2018-11-26T14:55:37.769Z,48.03
2018-11-26T14:58:26.079Z,52.13
2018-11-26T15:01:14.466Z,52.23
2018-11-26T15:04:02.860Z,50.07
2018-11-26T15:06:51.178Z,50.50
2018-11-26T15:09:39.527Z,52.47
2018-11-26T15:12:28.272Z,51.13
2018-11-26T15:18:05.359Z,54.23
2018-11-26T15:20:53.667Z,49.23
2018-11-26T15:23:42.010Z,54.73
2018-11-26T15:26:10.876Z,52.60
2018-11-26T15:28:59.216Z,53.70
2018-11-26T15:35:32.040Z,52.57
2018-11-26T15:38:00.920Z,53.60
2018-11-26T15:40:49.278Z,53.33
2018-11-26T15:43:37.832Z,50.03
2018-11-26T15:46:19.657Z,51.90
2018-11-26T15:49:01.274Z,49.93
2018-11-26T15:51:42.756Z,51.57
2018-11-26T15:54:23.684Z,54.23
2018-11-26T15:57:04.876Z,49.20
2018-11-26T15:59:46.316Z,51.53
2018-11-26T16:02:53.703Z,49.33
2018-11-26T16:05:32.737Z,52.90
2018-11-26T16:08:10.524Z,52.10
2018-11-26T16:10:39.488Z,50.27
2018-11-26T16:13:10.760Z,53.63
2018-11-26T16:15:44.216Z,52.07
2018-11-26T16:18:27.863Z,55.00
2018-11-26T16:20:59.101Z,55.70
2018-11-26T16:23:28.063Z,53.60
2018-11-26T16:25:59.107Z,50.60
2018-11-26T16:28:34.774Z,51.93
2018-11-26T16:31:04.860Z,53.67
2018-11-26T16:33:46.360Z,55.23
2018-11-26T16:36:16.379Z,51.77
2018-11-26T16:38:46.673Z,56.20
2018-11-26T16:41:17.614Z,47.77
2018-11-26T16:43:49.006Z,55.63
2018-11-26T16:46:18.089Z,55.03
2018-11-26T16:48:57.192Z,50.33
2018-11-26T16:51:28.176Z,51.27
2018-11-26T16:54:02.503Z,52.77
2018-11-26T16:59:25.062Z,52.70
2018-11-26T17:02:00.992Z,54.23
2018-11-26T17:04:37.172Z,53.47
2018-11-26T17:07:20.487Z,51.83
2018-11-26T17:10:02.310Z,51.73
2018-11-26T17:12:31.208Z,55.87
2018-11-26T17:15:01.286Z,52.70
2018-11-26T17:17:36.498Z,55.13
2018-11-26T17:20:15.936Z,49.37
2018-11-26T17:22:47.883Z,52.60
2018-11-26T17:25:17.503Z,55.23
2018-11-26T17:28:00.255Z,50.13
2018-11-26T17:30:32.334Z,51.77
2018-11-26T17:33:03.708Z,52.40
2018-11-26T17:35:48.976Z,50.77
2018-11-26T17:38:18.913Z,49.17
2018-11-26T17:40:48.004Z,49.53
2018-11-26T17:43:17.976Z,49.83
2018-11-26T17:45:50.040Z,53.63
2018-11-26T17:48:18.994Z,47.97
2018-11-26T17:50:57.385Z,54.87
2018-11-26T17:53:33.110Z,50.27
2018-11-26T17:56:18.381Z,53.00
2018-11-26T17:58:59.571Z,52.13
2018-11-26T18:01:39.341Z,53.73
2018-11-26T18:04:13.912Z,47.90
2018-11-26T18:06:47.595Z,50.40
2018-11-26T18:09:34.485Z,50.03
2018-11-26T18:12:04.502Z,52.00
2018-11-26T18:14:35.571Z,52.97
2018-11-26T18:17:10.206Z,54.00
2018-11-26T18:19:40.233Z,48.93
2018-11-26T18:22:12.257Z,50.00
2018-11-26T18:24:54.441Z,49.47
2018-11-26T18:27:23.445Z,52.13
2018-11-26T18:29:52.503Z,49.87
2018-11-26T18:32:27.377Z,48.57
2018-11-26T18:34:58.477Z,48.73
2018-11-26T18:37:33.502Z,51.60
2018-11-26T18:40:04.995Z,51.17
2018-11-26T18:42:41.481Z,49.53
2018-11-26T18:45:14.484Z,47.97
2018-11-26T18:50:37.492Z,49.13
2018-11-26T18:53:13.372Z,52.67
2018-11-26T18:55:50.194Z,57.67
2018-11-26T18:58:19.160Z,50.57
2018-11-26T19:01:01.269Z,53.00
2018-11-26T19:03:33.858Z,51.13
2018-11-26T19:06:04.389Z,49.90
2018-11-26T19:08:34.202Z,51.20
2018-11-26T19:11:14.496Z,51.03
2018-11-26T19:14:04.878Z,50.63
2018-11-26T19:16:36.716Z,50.73
2018-11-26T19:19:16.344Z,51.17
2018-11-26T19:21:50.989Z,51.33
2018-11-26T19:24:21.245Z,50.33
2018-11-26T19:26:52.687Z,51.90
2018-11-26T19:29:22.629Z,51.33
2018-11-26T19:31:55.962Z,50.73
2018-11-26T19:34:24.756Z,56.07
2018-11-26T19:36:55.454Z,55.30
2018-11-26T19:39:26.357Z,54.37
2018-11-26T19:42:05.196Z,55.20
2018-11-26T19:44:35.392Z,52.97
2018-11-26T19:47:05.204Z,58.30
2018-11-26T19:49:35.754Z,52.90
2018-11-26T19:52:06.676Z,48.80
2018-11-26T19:54:41.384Z,52.37
2018-11-26T19:57:14.786Z,51.50
2018-11-26T19:59:50.446Z,52.23
2018-11-26T20:02:21.065Z,50.47
2018-11-26T20:04:56.422Z,48.47
2018-11-26T20:07:27.188Z,50.37
2018-11-26T20:09:58.350Z,54.17
2018-11-26T20:12:28.093Z,50.83
2018-11-26T20:15:01.799Z,51.20
2018-11-26T20:17:35.813Z,53.23
2018-11-26T20:20:06.753Z,54.17
2018-11-26T20:25:31.632Z,52.23
2018-11-26T20:28:06.835Z,52.20
2018-11-26T20:30:36.914Z,52.37
2018-11-26T20:33:07.621Z,50.00
2018-11-26T20:35:44.979Z,48.90
2018-11-26T20:38:15.003Z,49.47
2018-11-26T20:40:49.837Z,51.37
2018-11-26T20:43:20.791Z,50.07
2018-11-26T20:45:50.387Z,52.47
2018-11-26T20:48:23.196Z,49.03
2018-11-26T20:50:52.952Z,49.50
2018-11-26T20:53:27.628Z,49.33
2018-11-26T20:55:59.146Z,47.13
2018-11-26T20:58:33.622Z,49.27
2018-11-26T21:01:03.649Z,46.80
2018-11-26T21:03:35.810Z,47.53
2018-11-26T21:06:06.606Z,49.97
2018-11-26T21:11:32.718Z,46.57
2018-11-26T21:14:08.068Z,45.73
2018-11-26T21:16:43.099Z,45.77
2018-11-26T21:19:16.462Z,44.37
2018-11-26T21:21:56.724Z,49.23
2018-11-26T21:27:25.323Z,41.37
2018-11-26T21:30:08.751Z,42.93
2018-11-26T21:32:39.000Z,43.47
2018-11-26T21:35:17.155Z,47.33
2018-11-26T21:37:49.602Z,45.37
2018-11-26T21:40:25.817Z,46.40
2018-11-26T21:42:55.108Z,43.07
2018-11-26T21:45:28.728Z,42.27
2018-11-26T21:48:05.360Z,41.53
2018-11-26T21:50:40.702Z,45.87
2018-11-26T21:53:23.157Z,45.33
2018-11-26T21:55:54.495Z,42.87
2018-11-26T21:58:25.502Z,43.33
2018-11-26T22:00:59.341Z,39.53
2018-11-26T22:03:36.523Z,44.13
2018-11-26T22:06:08.993Z,42.47
2018-11-26T22:08:42.324Z,43.53
2018-11-26T22:11:31.918Z,42.57
2018-11-26T22:14:02.233Z,43.63
2018-11-26T22:16:33.528Z,43.80
2018-11-26T22:22:00.350Z,45.97
2018-11-26T22:24:45.992Z,43.73
2018-11-26T22:27:29.734Z,47.33
2018-11-26T22:30:17.828Z,46.27
2018-11-26T22:32:57.431Z,44.80
2018-11-26T22:35:30.057Z,43.90
2018-11-26T22:38:00.159Z,46.47
2018-11-26T22:40:37.006Z,45.73
2018-11-26T22:43:06.451Z,46.10
2018-11-26T22:45:40.275Z,47.30
2018-11-26T22:48:11.478Z,46.13
2018-11-26T22:50:58.925Z,45.17
2018-11-26T22:53:27.901Z,46.63
2018-11-26T22:55:56.836Z,45.07
2018-11-26T22:58:31.490Z,47.20
2018-11-26T23:01:11.169Z,44.83
2018-11-26T23:03:46.332Z,41.53
2018-11-26T23:06:22.435Z,44.33
2018-11-26T23:08:58.988Z,49.87
2018-11-26T23:11:28.015Z,47.77
2018-11-26T23:13:57.134Z,48.67
2018-11-26T23:16:36.499Z,46.33
2018-11-26T23:19:11.567Z,43.20
2018-11-26T23:21:40.493Z,42.83
2018-11-26T23:24:27.650Z,44.80
2018-11-26T23:27:08.483Z,45.80
2018-11-26T23:29:51.773Z,46.23
2018-11-26T23:32:22.769Z,45.00
2018-11-26T23:34:55.093Z,44.33
2018-11-26T23:37:26.343Z,47.27
2018-11-26T23:40:11.746Z,45.43
2018-11-26T23:42:48.079Z,45.67
2018-11-26T23:45:23.481Z,44.63
2018-11-26T23:47:52.613Z,44.77
2018-11-26T23:50:45.330Z,46.80
2018-11-26T23:53:24.622Z,43.53
2018-11-26T23:55:57.526Z,42.03
2018-11-26T23:58:30.463Z,45.00
